Time;durP1;ratioP1;P1;durP2;ratioP2;P2;SDS_P1;SDS_P2;PMS_P1;PMS_P2;Temp;Humidity;BMP_temperature;BMP_pressure;BME280_temperature;BME280_humidity;BME280_pressure;Samples;Min_cycle;Max_cycle;Signal;HPM_P1;HPM_P2
2024/03/08 00:01:21;;;;;;;1999.90;999.90;;;8.90;99.90;;;;;;5047422;28;20041;-79
2024/03/08 00:03:47;;;;;;;1999.90;999.90;;;8.80;99.90;;;;;;5052520;28;20028;-79
2024/03/08 00:06:13;;;;;;;1999.90;999.90;;;8.80;99.90;;;;;;5052046;28;20399;-80
2024/03/08 00:08:40;;;;;;;1999.90;999.90;;;8.80;99.90;;;;;;5048074;28;20032;-80
2024/03/08 00:11:06;;;;;;;1999.90;999.90;;;8.80;99.90;;;;;;5039803;28;20399;-78
2024/03/08 00:13:32;;;;;;;1999.90;999.90;;;8.80;99.90;;;;;;5052239;28;20051;-79
2024/03/08 00:15:58;;;;;;;1999.90;999.90;;;8.80;99.90;;;;;;5050991;28;20096;-79
2024/03/08 00:18:24;;;;;;;1999.90;999.90;;;8.70;99.90;;;;;;5050273;28;20036;-80
2024/03/08 00:20:50;;;;;;;1999.90;999.90;;;8.70;99.90;;;;;;5037631;28;20033;-79
2024/03/08 00:23:16;;;;;;;1999.90;999.90;;;8.70;99.90;;;;;;5051895;28;20045;-81
2024/03/08 00:25:43;;;;;;;1999.90;999.90;;;8.70;99.90;;;;;;5050730;28;20028;-81
2024/03/08 00:28:13;;;;;;;1999.90;999.90;;;8.70;99.90;;;;;;5052143;28;20040;-81
2024/03/08 00:30:39;;;;;;;1999.90;999.90;;;8.70;99.90;;;;;;5034973;28;20026;-81
2024/03/08 00:33:05;;;;;;;1999.90;999.90;;;8.70;99.90;;;;;;5051782;28;20049;-78
2024/03/08 00:35:31;;;;;;;1999.90;999.90;;;8.70;99.90;;;;;;5048013;28;20091;-73
2024/03/08 00:37:58;;;;;;;1999.90;999.90;;;8.70;99.90;;;;;;5048721;28;20033;-74
2024/03/08 00:40:24;;;;;;;1999.90;999.90;;;8.70;99.90;;;;;;5053196;28;20037;-73
2024/03/08 00:42:50;;;;;;;1999.90;999.90;;;8.60;99.90;;;;;;5044696;28;20590;-73
2024/03/08 00:45:16;;;;;;;1999.90;999.90;;;8.60;99.90;;;;;;5036042;28;20041;-73
2024/03/08 00:47:43;;;;;;;1999.90;999.90;;;8.60;99.90;;;;;;5055864;28;20029;-74
2024/03/08 00:50:10;;;;;;;1999.90;999.90;;;8.60;99.90;;;;;;5040854;28;20061;-73
2024/03/08 00:52:37;;;;;;;1999.90;999.90;;;8.50;99.90;;;;;;5055511;28;20044;-73
2024/03/08 00:55:03;;;;;;;1999.90;999.90;;;8.50;99.90;;;;;;5056074;28;20450;-73
2024/03/08 00:57:29;;;;;;;1999.90;999.90;;;8.50;99.90;;;;;;5055524;28;20037;-73
2024/03/08 00:59:56;;;;;;;1999.90;999.90;;;8.50;99.90;;;;;;5042700;28;20065;-73
2024/03/08 01:02:23;;;;;;;1999.90;999.90;;;8.50;99.90;;;;;;5034872;28;20052;-73
2024/03/08 01:04:50;;;;;;;1999.90;999.90;;;8.50;99.90;;;;;;5035253;28;20034;-73
2024/03/08 01:07:16;;;;;;;1999.90;999.90;;;8.50;99.90;;;;;;5052668;28;20037;-73
2024/03/08 01:09:42;;;;;;;1999.90;999.90;;;8.40;99.90;;;;;;5045223;28;20384;-73
2024/03/08 01:12:10;;;;;;;1999.90;999.90;;;8.50;99.90;;;;;;5036349;28;20041;-74
2024/03/08 01:14:36;;;;;;;1999.90;999.90;;;8.50;99.90;;;;;;5034833;28;20041;-73
2024/03/08 01:17:02;;;;;;;1999.90;999.90;;;8.60;99.90;;;;;;5034934;28;20064;-73
2024/03/08 01:19:28;;;;;;;1999.90;999.90;;;8.60;99.90;;;;;;5035506;28;20037;-74
2024/03/08 01:21:57;;;;;;;1999.90;999.90;;;8.50;99.90;;;;;;5049629;28;20029;-73
2024/03/08 01:24:23;;;;;;;1999.90;999.90;;;8.40;99.90;;;;;;5055496;28;20036;-73
2024/03/08 01:26:49;;;;;;;1999.90;999.90;;;8.30;99.90;;;;;;5054873;28;20035;-73
2024/03/08 01:29:16;;;;;;;1999.90;999.90;;;8.30;99.90;;;;;;5048415;28;20046;-73
2024/03/08 01:31:42;;;;;;;1999.90;999.90;;;8.20;99.90;;;;;;5045843;28;20033;-73
2024/03/08 01:34:08;;;;;;;1999.90;999.90;;;8.20;99.90;;;;;;5055083;28;20037;-73
2024/03/08 01:36:34;;;;;;;1999.90;999.90;;;8.20;99.90;;;;;;5054648;28;20033;-75
2024/03/08 01:39:00;;;;;;;1999.90;999.90;;;8.20;99.90;;;;;;5050918;28;20056;-81
2024/03/08 01:41:29;;;;;;;1999.90;999.90;;;8.10;99.90;;;;;;5044284;28;20391;-81
2024/03/08 01:43:55;;;;;;;1999.90;999.90;;;8.10;99.90;;;;;;5054266;28;20048;-81
2024/03/08 01:46:21;;;;;;;1999.90;999.90;;;8.10;99.90;;;;;;5053051;28;20044;-81
2024/03/08 01:48:48;;;;;;;1999.90;999.90;;;8.20;99.90;;;;;;5051554;28;20040;-81
2024/03/08 01:51:14;;;;;;;1999.90;999.90;;;8.10;99.90;;;;;;5042920;28;20037;-81
2024/03/08 01:53:41;;;;;;;1999.90;999.90;;;8.00;99.90;;;;;;5053264;28;20049;-81
2024/03/08 01:56:08;;;;;;;1999.90;999.90;;;8.00;99.90;;;;;;5052843;28;20043;-81
2024/03/08 01:58:35;;;;;;;1999.90;999.90;;;8.00;99.90;;;;;;5053022;28;20471;-82
2024/03/08 02:01:04;;;;;;;1999.90;999.90;;;8.00;99.90;;;;;;5039904;28;20033;-81
2024/03/08 02:03:31;;;;;;;1999.90;999.90;;;7.90;99.90;;;;;;5053169;28;20040;-81
2024/03/08 02:05:58;;;;;;;1999.90;999.90;;;7.90;99.90;;;;;;5054061;28;20041;-81
2024/03/08 02:08:24;;;;;;;1999.90;999.90;;;7.90;99.90;;;;;;5054619;28;20052;-81
2024/03/08 02:10:51;;;;;;;1999.90;999.90;;;7.80;99.90;;;;;;5034929;28;20044;-81
2024/03/08 02:13:17;;;;;;;1999.90;999.90;;;7.70;99.90;;;;;;5034593;28;20080;-82
2024/03/08 02:15:53;;;;;;;1999.90;999.90;;;7.80;99.90;;;;;;5034193;28;20403;-81
2024/03/08 02:18:20;;;;;;;1999.90;999.90;;;7.80;99.90;;;;;;5034247;28;20480;-80
2024/03/08 02:20:47;;;;;;;1999.90;999.90;;;7.70;99.90;;;;;;5051208;28;20033;-80
2024/03/08 02:23:14;;;;;;;1999.90;999.90;;;7.70;99.90;;;;;;5054410;28;20032;-80
2024/03/08 02:25:42;;;;;;;1999.90;999.90;;;7.70;99.90;;;;;;5052247;28;20403;-81
2024/03/08 02:28:10;;;;;;;1999.90;999.90;;;7.70;99.90;;;;;;5054355;28;20037;-81
2024/03/08 02:30:36;;;;;;;1999.90;999.90;;;7.70;99.90;;;;;;5039432;28;20040;-81
2024/03/08 02:33:02;;;;;;;1999.90;999.90;;;7.70;99.90;;;;;;5054167;28;20037;-81
2024/03/08 02:35:28;;;;;;;1999.90;999.90;;;7.70;99.90;;;;;;5053570;28;20044;-81
2024/03/08 02:37:54;;;;;;;1999.90;999.90;;;7.60;99.90;;;;;;5046593;28;20037;-81
2024/03/08 02:40:21;;;;;;;1999.90;999.90;;;7.50;99.90;;;;;;5034329;28;20038;-81
2024/03/08 02:42:48;;;;;;;1999.90;999.90;;;7.50;99.90;;;;;;5052178;28;20463;-81
2024/03/08 02:45:14;;;;;;;1999.90;999.90;;;7.50;99.90;;;;;;5052936;28;20029;-81
2024/03/08 02:47:41;;;;;;;1999.90;999.90;;;7.50;99.90;;;;;;5048477;28;20040;-81
2024/03/08 02:50:11;;;;;;;1999.90;999.90;;;7.50;99.90;;;;;;5033701;28;20053;-80
2024/03/08 02:52:37;;;;;;;1999.90;999.90;;;7.50;99.90;;;;;;5032865;28;20057;-81
2024/03/08 02:55:06;;;;;;;1999.90;999.90;;;7.50;99.90;;;;;;5033549;28;20033;-80
2024/03/08 02:57:32;;;;;;;1999.90;999.90;;;7.50;99.90;;;;;;5048578;28;20036;-80
2024/03/08 02:59:59;;;;;;;1999.90;999.90;;;7.40;99.90;;;;;;5031839;28;20510;-81
2024/03/08 03:02:26;;;;;;;1999.90;999.90;;;7.40;99.90;;;;;;5046223;28;20048;-81
2024/03/08 03:04:53;;;;;;;1999.90;999.90;;;7.40;99.90;;;;;;5038084;28;20053;-80
2024/03/08 03:07:19;;;;;;;1999.90;999.90;;;7.40;99.90;;;;;;5042287;28;20052;-81
2024/03/08 03:09:45;;;;;;;1999.90;999.90;;;7.40;99.90;;;;;;5033870;28;20044;-80
2024/03/08 03:12:11;;;;;;;1999.90;999.90;;;7.40;99.90;;;;;;5033652;28;20503;-80
2024/03/08 03:14:40;;;;;;;1999.90;999.90;;;7.40;99.90;;;;;;5030524;28;20041;-80
2024/03/08 03:17:06;;;;;;;1999.90;999.90;;;7.40;99.90;;;;;;5045636;28;20037;-79
2024/03/08 03:19:33;;;;;;;1999.90;999.90;;;7.40;99.90;;;;;;5038319;28;20469;-80
2024/03/08 03:21:59;;;;;;;1999.90;999.90;;;7.30;99.90;;;;;;5046474;28;20383;-80
2024/03/08 03:24:29;;;;;;;1999.90;999.90;;;7.30;99.90;;;;;;5035651;28;20045;-80
2024/03/08 03:26:55;;;;;;;1999.90;999.90;;;7.30;99.90;;;;;;5045722;28;20530;-80
2024/03/08 03:29:21;;;;;;;1999.90;999.90;;;7.20;99.90;;;;;;5033434;28;20033;-80
2024/03/08 03:31:47;;;;;;;1999.90;999.90;;;7.20;99.90;;;;;;5044235;28;20411;-80
2024/03/08 03:34:13;;;;;;;1999.90;999.90;;;7.20;99.90;;;;;;5051437;28;20048;-80
2024/03/08 03:36:42;;;;;;;1999.90;999.90;;;7.20;99.90;;;;;;5045272;28;20029;-80
2024/03/08 03:39:19;;;;;;;581.60;327.02;;;7.20;99.90;;;;;;5036760;28;20042;-80
2024/03/08 03:41:51;;;;;;;1999.90;999.90;;;7.20;99.90;;;;;;5045831;28;20028;-81
2024/03/08 03:44:18;;;;;;;99.03;93.40;;;7.10;99.90;;;;;;5052465;28;20063;-80
2024/03/08 03:46:44;;;;;;;1999.90;999.90;;;7.10;99.90;;;;;;5051729;28;20033;-80
2024/03/08 03:49:10;;;;;;;1999.90;999.90;;;7.10;99.90;;;;;;5037191;28;20041;-80
2024/03/08 03:51:36;;;;;;;116.07;109.50;;;7.10;99.90;;;;;;5044282;28;20033;-80
2024/03/08 03:54:03;;;;;;;103.93;98.30;;;7.10;99.90;;;;;;5052284;28;20502;-80
2024/03/08 03:56:30;;;;;;;110.45;104.00;;;7.10;99.90;;;;;;5052028;28;20029;-80
2024/03/08 03:58:56;;;;;;;118.78;112.00;;;7.00;99.90;;;;;;5039609;28;20056;-81
2024/03/08 04:01:22;;;;;;;143.73;135.70;;;7.10;99.90;;;;;;5049497;28;20037;-80
2024/03/08 04:03:48;;;;;;;120.80;114.20;;;7.00;99.90;;;;;;5052411;28;20100;-80
2024/03/08 04:06:15;;;;;;;124.68;117.47;;;7.10;99.90;;;;;;5051903;28;20029;-80
2024/03/08 04:08:41;;;;;;;166.50;156.93;;;7.00;99.90;;;;;;5050667;28;20056;-80
2024/03/08 04:11:08;;;;;;;109.70;103.55;;;6.90;99.90;;;;;;5040233;28;20033;-79
2024/03/08 04:13:36;;;;;;;113.95;107.63;;;7.00;99.90;;;;;;5032085;28;20060;-80
2024/03/08 04:16:02;;;;;;;106.50;100.47;;;7.00;99.90;;;;;;5038871;28;20419;-80
2024/03/08 04:18:28;;;;;;;107.93;102.03;;;7.00;99.90;;;;;;5051697;28;20472;-79
2024/03/08 04:20:55;;;;;;;80.43;76.25;;;7.00;99.90;;;;;;5050108;28;20036;-80
2024/03/08 04:23:21;;;;;;;131.20;123.82;;;7.00;99.90;;;;;;5051690;28;20414;-80
2024/03/08 04:25:47;;;;;;;98.43;92.78;;;7.10;99.90;;;;;;5051742;28;20040;-80
2024/03/08 04:28:13;;;;;;;100.18;94.47;;;7.00;99.90;;;;;;5035565;28;20045;-81
2024/03/08 04:30:40;;;;;;;92.35;87.07;;;7.00;99.90;;;;;;5034022;28;20040;-80
2024/03/08 04:33:09;;;;;;;130.82;123.47;;;7.00;99.90;;;;;;5050670;28;20383;-80
2024/03/08 04:35:35;;;;;;;99.22;93.50;;;6.90;99.90;;;;;;5035000;28;20371;-81
2024/03/08 04:38:01;;;;;;;165.77;156.20;;;6.90;99.90;;;;;;5049743;28;20037;-80
2024/03/08 04:40:27;;;;;;;94.85;89.55;;;6.90;99.90;;;;;;5051670;28;20040;-80
2024/03/08 04:42:53;;;;;;;100.03;94.72;;;7.00;99.90;;;;;;5049484;28;20759;-80
2024/03/08 04:45:20;;;;;;;129.48;122.50;;;6.90;99.90;;;;;;5050791;28;20092;-80
2024/03/08 04:47:46;;;;;;;102.88;96.70;;;6.90;99.90;;;;;;5049581;28;20684;-80
2024/03/08 04:50:12;;;;;;;98.22;92.75;;;6.90;99.90;;;;;;5031965;28;20029;-81
2024/03/08 04:52:38;;;;;;;94.40;89.13;;;7.00;99.90;;;;;;5043408;28;20033;-80
2024/03/08 04:55:05;;;;;;;78.72;74.25;;;6.90;99.90;;;;;;5031589;28;20139;-81
2024/03/08 04:57:31;;;;;;;62.47;58.83;;;7.00;99.90;;;;;;5030489;28;20489;-80
2024/03/08 04:59:59;;;;;;;80.75;76.25;;;7.10;99.90;;;;;;5051383;28;20495;-80
2024/03/08 05:02:25;;;;;;;89.50;84.35;;;7.20;99.90;;;;;;5050919;28;20044;-80
2024/03/08 05:04:51;;;;;;;126.85;119.97;;;7.10;99.90;;;;;;5051355;28;20379;-80
2024/03/08 05:07:17;;;;;;;75.90;71.75;;;7.10;99.90;;;;;;5049037;28;20052;-80
2024/03/08 05:09:49;;;;;;;89.18;84.38;;;7.10;99.90;;;;;;5046191;28;20040;-80
2024/03/08 05:12:15;;;;;;;84.85;79.93;;;7.10;99.90;;;;;;5032557;28;20476;-80
2024/03/08 05:14:41;;;;;;;137.68;129.73;;;7.10;99.90;;;;;;5031983;28;20057;-80
2024/03/08 05:17:08;;;;;;;102.43;96.88;;;7.00;99.90;;;;;;5047356;28;20514;-80
2024/03/08 05:19:34;;;;;;;71.03;66.97;;;7.00;99.90;;;;;;5047922;28;20037;-80
2024/03/08 05:22:00;;;;;;;115.28;108.22;;;7.00;99.90;;;;;;5054753;28;20471;-80
2024/03/08 05:24:26;;;;;;;112.35;106.25;;;7.00;99.90;;;;;;5053197;28;20074;-80
2024/03/08 05:26:52;;;;;;;117.50;111.05;;;7.00;99.90;;;;;;5053646;28;20058;-80
2024/03/08 05:29:18;;;;;;;137.32;129.85;;;7.00;99.90;;;;;;5054613;28;20048;-80
2024/03/08 05:31:52;;;;;;;76.40;72.13;;;6.90;99.90;;;;;;5054284;28;20475;-80
2024/03/08 05:34:19;;;;;;;141.02;133.20;;;7.00;99.90;;;;;;5054648;28;20055;-80
2024/03/08 05:36:46;;;;;;;64.75;60.97;;;7.00;99.90;;;;;;5054149;28;20392;-80
2024/03/08 05:39:13;;;;;;;77.57;73.28;;;7.10;99.90;;;;;;5044348;28;20424;-80
2024/03/08 05:41:40;;;;;;;164.88;155.80;;;7.20;99.90;;;;;;5049026;28;20037;-81
2024/03/08 05:44:06;;;;;;;77.40;73.10;;;7.00;99.90;;;;;;5034459;28;20060;-80
2024/03/08 05:46:32;;;;;;;89.10;83.97;;;7.00;99.90;;;;;;5044894;28;20037;-78
2024/03/08 05:48:58;;;;;;;116.30;109.72;;;7.00;99.90;;;;;;5053264;28;20040;-82
2024/03/08 05:51:27;;;;;;;90.10;84.97;;;6.90;99.90;;;;;;5047089;28;20051;-80
2024/03/08 05:53:55;;;;;;;93.90;88.50;;;6.90;99.90;;;;;;5051850;28;20063;-78
2024/03/08 05:56:22;;;;;;;68.72;64.85;;;6.80;99.90;;;;;;5049480;28;20025;-81
2024/03/08 05:58:50;;;;;;;61.10;57.63;;;6.80;99.90;;;;;;5054707;28;20052;-81
2024/03/08 06:01:16;;;;;;;55.15;52.03;;;6.80;99.90;;;;;;5053876;28;20037;-81
2024/03/08 06:03:48;;;;;;;88.13;83.28;;;6.80;99.90;;;;;;5039966;28;20033;-81
2024/03/08 06:06:17;;;;;;;61.20;57.67;;;6.80;99.90;;;;;;5050744;28;20021;-81
2024/03/08 06:08:44;;;;;;;75.78;71.38;;;6.70;99.90;;;;;;5054192;28;20037;-81
2024/03/08 06:11:10;;;;;;;68.63;64.90;;;6.70;99.90;;;;;;5054333;28;20025;-81
2024/03/08 06:13:36;;;;;;;74.95;70.55;;;6.70;99.90;;;;;;5053655;28;20056;-81
2024/03/08 06:16:04;;;;;;;102.43;96.90;;;6.60;99.90;;;;;;5053947;28;20037;-81
2024/03/08 06:18:31;;;;;;;69.20;65.43;;;6.70;99.90;;;;;;5053979;28;20041;-81
2024/03/08 06:20:57;;;;;;;55.90;52.42;;;6.70;99.90;;;;;;5054246;28;20060;-81
2024/03/08 06:23:23;;;;;;;69.20;65.30;;;6.60;99.90;;;;;;5045912;28;20667;-81
2024/03/08 06:25:49;;;;;;;73.55;69.35;;;6.60;99.90;;;;;;5054063;28;20032;-81
2024/03/08 06:28:16;;;;;;;95.75;90.50;;;6.60;99.90;;;;;;5053908;28;20048;-73
2024/03/08 06:30:43;;;;;;;59.72;55.92;;;6.60;99.90;;;;;;5053500;28;20029;-73
2024/03/08 06:33:10;;;;;;;83.50;78.53;;;6.60;99.90;;;;;;5044943;28;20037;-72
2024/03/08 06:35:37;;;;;;;61.30;57.72;;;6.60;99.90;;;;;;5053794;28;20033;-73
2024/03/08 06:38:06;;;;;;;63.75;60.03;;;6.50;99.90;;;;;;5038576;28;20037;-73
2024/03/08 06:40:32;;;;;;;77.75;73.30;;;6.50;99.90;;;;;;5034099;28;20034;-72
2024/03/08 06:42:58;;;;;;;64.55;60.70;;;6.50;99.90;;;;;;5039142;28;20040;-73
2024/03/08 06:45:25;;;;;;;69.55;65.55;;;6.50;99.90;;;;;;5053197;28;20017;-73
2024/03/08 06:47:51;;;;;;;73.13;68.95;;;6.60;99.90;;;;;;5053328;28;20471;-73
2024/03/08 06:50:17;;;;;;;83.72;79.03;;;6.60;99.90;;;;;;5053652;28;20025;-73
2024/03/08 06:52:44;;;;;;;69.15;65.30;;;6.50;99.90;;;;;;5050216;28;20037;-73
2024/03/08 06:55:13;;;;;;;45.55;42.85;;;6.60;99.90;;;;;;5033210;28;20053;-73
2024/03/08 06:57:42;;;;;;;100.77;95.07;;;6.50;99.90;;;;;;5050388;28;20044;-73
2024/03/08 07:00:11;;;;;;;78.45;74.10;;;6.50;99.90;;;;;;5053098;28;20388;-72
2024/03/08 07:02:39;;;;;;;81.75;77.15;;;6.60;99.90;;;;;;5037664;28;20045;-73
2024/03/08 07:05:06;;;;;;;70.32;66.28;;;6.50;99.90;;;;;;5050875;28;20059;-83
2024/03/08 07:07:33;;;;;;;64.72;61.03;;;6.50;99.90;;;;;;5053425;28;20251;-72
2024/03/08 07:10:03;;;;;;;69.85;65.72;;;6.60;99.90;;;;;;5053442;28;20040;-74
2024/03/08 07:12:29;;;;;;;89.13;84.25;;;6.60;99.90;;;;;;5032177;28;20480;-72
2024/03/08 07:14:55;;;;;;;95.97;90.78;;;6.60;99.90;;;;;;5052959;28;20052;-73
2024/03/08 07:17:22;;;;;;;84.93;80.22;;;6.50;99.90;;;;;;5051946;28;20379;-73
2024/03/08 07:19:49;;;;;;;108.68;102.72;;;6.60;99.90;;;;;;5052878;28;20049;-72
2024/03/08 07:22:15;;;;;;;81.93;77.50;;;6.50;99.90;;;;;;5034768;28;20045;-73
2024/03/08 07:27:13;;;;;;;73.22;69.15;;;6.60;99.90;;;;;;5050267;28;20040;-72
2024/03/08 07:29:39;;;;;;;65.47;61.88;;;6.60;99.90;;;;;;5051277;28;20475;-72
2024/03/08 07:35:02;;;;;;;72.05;68.05;;;6.50;99.90;;;;;;5042531;28;20049;-73
2024/03/08 07:37:28;;;;;;;93.22;87.72;;;6.70;99.90;;;;;;5035921;28;20053;-73
2024/03/08 07:39:54;;;;;;;105.43;99.70;;;6.60;99.90;;;;;;5033118;28;20052;-73
2024/03/08 07:42:21;;;;;;;100.30;94.73;;;6.60;99.90;;;;;;5047140;28;20041;-73
2024/03/08 07:44:48;;;;;;;106.43;100.50;;;6.70;99.90;;;;;;5044131;28;20072;-73
2024/03/08 07:47:14;;;;;;;86.10;81.45;;;6.70;99.90;;;;;;5048336;28;20518;-73
2024/03/08 07:49:40;;;;;;;98.50;93.22;;;6.70;99.90;;;;;;5052453;28;20040;-73
2024/03/08 07:52:07;;;;;;;92.88;87.65;;;6.70;99.90;;;;;;5049281;28;20044;-73
2024/03/08 07:54:34;;;;;;;90.13;85.30;;;6.70;99.90;;;;;;5042656;28;20045;-72
2024/03/08 07:57:02;;;;;;;103.82;98.18;;;6.70;99.90;;;;;;5038157;28;20041;-73
2024/03/08 07:59:30;;;;;;;108.95;102.95;;;6.70;99.90;;;;;;5036034;28;20044;-73
2024/03/08 08:01:57;;;;;;;93.65;88.38;;;6.80;99.90;;;;;;5037098;28;20034;-75
2024/03/08 08:04:24;;;;;;;136.30;128.98;;;6.80;99.90;;;;;;5031741;28;20041;-72
2024/03/08 08:06:51;;;;;;;79.63;75.32;;;6.80;99.90;;;;;;5037761;28;20402;-75
2024/03/08 08:09:28;;;;;;;75.25;70.88;;;6.80;99.90;;;;;;5039618;28;20044;-74
2024/03/08 08:11:55;;;;;;;154.32;145.23;;;6.80;99.90;;;;;;5049971;28;20499;-75
2024/03/08 08:14:21;;;;;;;110.38;104.32;;;6.80;99.90;;;;;;5051669;28;20043;-75
2024/03/08 08:16:48;;;;;;;82.90;78.10;;;6.90;99.90;;;;;;5049243;28;20048;-74
2024/03/08 08:19:17;;;;;;;109.65;103.65;;;6.90;99.90;;;;;;5039574;28;20037;-73
2024/03/08 08:21:43;;;;;;;88.90;83.90;;;6.90;99.90;;;;;;5031856;28;20029;-70
2024/03/08 08:24:10;;;;;;;94.47;88.97;;;7.10;99.90;;;;;;5031817;28;20044;-75
2024/03/08 08:26:36;;;;;;;87.55;82.82;;;7.20;99.90;;;;;;5032982;28;20519;-75
2024/03/08 08:29:02;;;;;;;90.65;85.60;;;7.20;99.90;;;;;;5047120;28;20044;-75
2024/03/08 08:31:29;;;;;;;122.00;115.13;;;7.20;99.90;;;;;;5051254;28;20491;-75
2024/03/08 08:33:58;;;;;;;91.93;86.63;;;7.20;99.90;;;;;;5050564;28;20037;-74
2024/03/08 08:36:24;;;;;;;72.18;68.50;;;7.20;99.90;;;;;;5041740;28;20391;-75
2024/03/08 08:38:50;;;;;;;81.07;76.32;;;7.30;99.90;;;;;;5052060;28;20045;-74
2024/03/08 08:41:17;;;;;;;66.25;62.63;;;7.30;99.90;;;;;;5051527;28;20025;-75
2024/03/08 08:43:46;;;;;;;84.78;80.28;;;7.40;99.90;;;;;;5051447;28;20045;-75
2024/03/08 08:46:13;;;;;;;76.03;71.80;;;7.40;99.90;;;;;;5039003;28;20033;-75
2024/03/08 08:48:42;;;;;;;56.33;53.22;;;7.40;99.90;;;;;;5031971;28;20045;-74
2024/03/08 08:51:12;;;;;;;78.40;73.95;;;7.50;99.90;;;;;;5039408;28;20036;-74
2024/03/08 08:53:42;;;;;;;160.23;151.35;;;7.50;99.90;;;;;;5051729;28;20033;-75
2024/03/08 08:56:09;;;;;;;107.30;101.20;;;7.60;99.90;;;;;;5053960;28;20048;-74
2024/03/08 08:58:35;;;;;;;85.55;81.13;;;7.60;99.90;;;;;;5046305;28;20476;-74
2024/03/08 09:01:01;;;;;;;86.72;81.93;;;7.60;99.90;;;;;;5041732;28;20044;-74
2024/03/08 09:03:29;;;;;;;78.93;74.07;;;7.60;99.90;;;;;;5055130;28;20438;-73
2024/03/08 09:05:56;;;;;;;65.95;62.17;;;7.70;99.90;;;;;;5055236;28;20048;-74
2024/03/08 09:08:23;;;;;;;129.32;122.07;;;7.70;99.90;;;;;;5055503;28;20044;-75
2024/03/08 09:10:49;;;;;;;91.00;85.95;;;7.80;99.90;;;;;;5052003;28;20037;-75
2024/03/08 09:13:16;;;;;;;89.72;84.80;;;7.80;99.90;;;;;;5035715;28;20037;-75
2024/03/08 09:15:43;;;;;;;69.78;65.57;;;7.90;99.90;;;;;;5038825;28;20439;-75
2024/03/08 09:18:10;;;;;;;91.95;87.03;;;8.00;99.90;;;;;;5053869;28;20032;-75
2024/03/08 09:20:36;;;;;;;127.78;120.55;;;8.10;99.90;;;;;;5036932;28;20056;-75
2024/03/08 09:23:03;;;;;;;93.43;87.90;;;8.20;99.90;;;;;;5042155;28;20045;-72
2024/03/08 09:25:30;;;;;;;78.60;74.28;;;8.30;99.90;;;;;;5038155;28;20056;-75
2024/03/08 09:27:56;;;;;;;112.35;106.40;;;8.50;99.90;;;;;;5038613;28;20404;-75
2024/03/08 09:30:22;;;;;;;166.85;157.20;;;8.60;99.90;;;;;;5036161;28;20038;-75
2024/03/08 09:32:51;;;;;;;141.43;133.30;;;8.60;99.90;;;;;;5055152;28;20036;-75
2024/03/08 09:35:17;;;;;;;125.68;118.93;;;8.60;99.90;;;;;;5046727;28;20052;-75
2024/03/08 09:37:43;;;;;;;138.57;130.90;;;8.60;99.90;;;;;;5039835;28;20029;-75
2024/03/08 09:40:09;;;;;;;144.48;136.57;;;8.70;99.90;;;;;;5034271;28;20042;-74
2024/03/08 09:42:38;;;;;;;100.45;94.80;;;8.80;99.90;;;;;;5051676;28;20045;-75
2024/03/08 09:45:11;;;;;;;92.50;87.43;;;8.80;99.90;;;;;;5053069;28;20048;-75
2024/03/08 09:47:42;;;;;;;122.82;116.05;;;8.90;99.90;;;;;;5046925;28;20045;-75
2024/03/08 09:50:09;;;;;;;104.07;98.03;;;9.00;99.90;;;;;;5054828;28;20036;-74
2024/03/08 09:52:43;;;;;;;107.88;101.65;;;9.10;99.90;;;;;;5034708;28;20037;-74
2024/03/08 09:55:12;;;;;;;109.05;102.90;;;9.10;99.90;;;;;;5034606;28;20060;-74
2024/03/08 09:57:39;;;;;;;154.68;146.40;;;9.30;99.90;;;;;;5036524;28;20507;-75
2024/03/08 10:00:18;;;;;;;155.07;146.05;;;9.30;99.90;;;;;;5038455;28;20033;-74
2024/03/08 10:02:47;;;;;;;120.65;114.00;;;9.40;99.90;;;;;;5034201;28;20030;-74
2024/03/08 10:05:14;;;;;;;127.90;120.75;;;9.40;99.90;;;;;;5034586;28;20373;-75
2024/03/08 10:07:40;;;;;;;156.20;147.30;;;9.40;99.90;;;;;;5053699;28;20033;-75
2024/03/08 10:10:08;;;;;;;92.80;87.93;;;9.50;99.90;;;;;;5051995;28;20036;-75
2024/03/08 10:12:37;;;;;;;94.05;88.85;;;9.60;99.90;;;;;;5041873;28;20048;-75
2024/03/08 10:15:07;;;;;;;137.52;129.95;;;9.70;99.90;;;;;;5038849;28;20399;-74
2024/03/08 10:17:35;;;;;;;129.48;122.55;;;9.80;99.90;;;;;;5037247;28;20518;-74
2024/03/08 10:20:02;;;;;;;1068.13;564.40;;;9.90;99.90;;;;;;5041155;28;20038;-75
2024/03/08 10:22:29;;;;;;;1999.90;999.90;;;10.00;99.90;;;;;;5041765;28;20053;-75
2024/03/08 10:24:55;;;;;;;1999.90;999.90;;;10.00;99.90;;;;;;5043709;28;20045;-75
2024/03/08 10:27:21;;;;;;;1999.90;999.90;;;10.10;99.90;;;;;;5039961;28;20069;-76
2024/03/08 10:29:48;;;;;;;1999.90;999.90;;;10.20;99.90;;;;;;5034266;28;20033;-75
2024/03/08 10:32:14;;;;;;;1999.90;999.90;;;10.30;99.90;;;;;;5050436;28;20029;-75
2024/03/08 10:34:41;;;;;;;1999.90;999.90;;;10.30;99.90;;;;;;5050769;28;20483;-75
2024/03/08 10:37:08;;;;;;;1999.90;999.90;;;10.30;99.90;;;;;;5044607;28;20400;-74
2024/03/08 10:39:36;;;;;;;1999.90;999.90;;;10.40;99.90;;;;;;5040936;28;20033;-74
2024/03/08 10:42:04;;;;;;;1999.90;999.90;;;10.50;99.90;;;;;;5048724;28;20052;-74
2024/03/08 10:44:30;;;;;;;1999.90;999.90;;;10.70;99.90;;;;;;5048742;28;20045;-74
2024/03/08 10:47:09;;;;;;;1999.90;999.90;;;10.70;99.90;;;;;;5034085;28;20033;-74
2024/03/08 10:49:39;;;;;;;1999.90;999.90;;;10.70;99.90;;;;;;5039457;28;20037;-74
2024/03/08 10:52:08;;;;;;;1999.90;999.90;;;10.80;99.90;;;;;;5045493;28;20039;-74
2024/03/08 10:54:34;;;;;;;1999.90;999.90;;;10.90;99.90;;;;;;5033486;28;20041;-74
2024/03/08 10:57:02;;;;;;;1999.90;999.90;;;10.90;99.90;;;;;;5030063;28;20052;-75
2024/03/08 10:59:28;;;;;;;1999.90;999.90;;;11.00;99.90;;;;;;5031353;28;20034;-75
2024/03/08 11:01:54;;;;;;;1999.90;999.90;;;11.10;99.90;;;;;;5025994;28;20068;-74
2024/03/08 11:04:22;;;;;;;1999.90;999.90;;;11.10;99.90;;;;;;5033611;28;20037;-75
2024/03/08 11:06:51;;;;;;;1999.90;999.90;;;11.20;99.90;;;;;;5046554;28;20040;-74
2024/03/08 11:09:41;;;;;;;1999.90;999.90;;;11.30;99.90;;;;;;5033611;28;20068;-74
2024/03/08 11:12:32;;;;;;;1999.90;999.90;;;11.30;99.90;;;;;;5044318;28;20041;-74
2024/03/08 11:15:13;;;;;;;1999.90;999.90;;;11.40;99.90;;;;;;5053169;28;20387;-79
2024/03/08 11:17:40;;;;;;;1999.90;999.90;;;11.50;99.90;;;;;;5050827;28;20041;-79
2024/03/08 11:20:16;;;;;;;1999.90;999.90;;;11.50;99.90;;;;;;5052936;28;20025;-80
2024/03/08 11:22:50;;;;;;;1999.90;999.90;;;11.60;99.90;;;;;;5035205;28;20037;-79
2024/03/08 11:25:33;;;;;;;1999.90;999.90;;;11.70;99.90;;;;;;5032216;28;20030;-79
2024/03/08 11:28:19;;;;;;;1999.90;999.90;;;11.80;99.90;;;;;;5050364;28;20147;-79
2024/03/08 11:30:48;;;;;;;1999.90;999.90;;;11.90;99.90;;;;;;5051766;28;20522;-76
2024/03/08 11:33:15;;;;;;;1999.90;999.90;;;11.90;99.90;;;;;;5037848;28;20379;-77
2024/03/08 11:35:42;;;;;;;1999.90;999.90;;;12.00;99.90;;;;;;5043645;28;20048;-78
2024/03/08 11:38:09;;;;;;;1999.90;999.90;;;12.00;99.90;;;;;;5045105;28;20472;-78
2024/03/08 11:40:35;;;;;;;1999.90;999.90;;;12.00;99.90;;;;;;5039511;28;20403;-78
2024/03/08 11:43:07;;;;;;;1999.90;999.90;;;12.00;99.90;;;;;;5052085;28;20037;-78
2024/03/08 11:45:36;;;;;;;1999.90;999.90;;;12.10;99.90;;;;;;5051741;28;20040;-78
2024/03/08 11:48:05;;;;;;;1999.90;999.90;;;12.10;99.90;;;;;;5052377;28;20052;-77
2024/03/08 11:50:32;;;;;;;1999.90;999.90;;;12.20;99.90;;;;;;5051211;28;20407;-78
2024/03/08 11:53:04;;;;;;;1999.90;999.90;;;12.20;99.90;;;;;;5036245;28;20049;-78
2024/03/08 11:55:35;;;;;;;1999.90;999.90;;;12.30;99.90;;;;;;5051054;28;20396;-78
2024/03/08 11:58:02;;;;;;;1999.90;999.90;;;12.20;99.90;;;;;;5051977;28;20041;-78
2024/03/08 12:00:35;;;;;;;1999.90;999.90;;;12.30;99.90;;;;;;5046957;28;20036;-78
2024/03/08 12:03:05;;;;;;;1999.90;999.90;;;12.50;99.90;;;;;;5030081;28;20037;-78
2024/03/08 12:05:33;;;;;;;1999.90;999.90;;;12.70;99.90;;;;;;5031210;28;20028;-79
2024/03/08 12:08:00;;;;;;;1999.90;999.90;;;12.80;99.90;;;;;;5032011;28;20052;-78
2024/03/08 12:10:26;;;;;;;1999.90;999.90;;;12.80;99.90;;;;;;5035559;28;20029;-78
2024/03/08 12:12:53;;;;;;;1999.90;999.90;;;12.70;99.90;;;;;;5050183;28;20479;-78
2024/03/08 12:15:20;;;;;;;1999.90;999.90;;;12.60;99.90;;;;;;5050951;28;20041;-78
2024/03/08 12:17:48;;;;;;;1999.90;999.90;;;12.70;99.90;;;;;;5051736;28;20033;-79
2024/03/08 12:20:28;;;;;;;1999.90;999.90;;;12.70;99.90;;;;;;5048600;28;20472;-79
2024/03/08 12:22:57;;;;;;;1999.90;999.90;;;12.90;99.90;;;;;;5052128;28;20471;-79
2024/03/08 12:25:42;;;;;;;1999.90;999.90;;;12.80;99.90;;;;;;5049998;28;20036;-79